createdAt,value
2023-07-27T04:02:35.371Z,14.43
2023-07-27T04:05:01.983Z,14.44
2023-07-27T04:07:28.606Z,14.47
2023-07-27T04:09:55.238Z,14.48
2023-07-27T04:12:21.801Z,14.61
2023-07-27T04:14:48.374Z,14.59
2023-07-27T04:17:15.002Z,14.57
2023-07-27T04:19:41.596Z,14.51
2023-07-27T04:22:08.194Z,14.51
2023-07-27T04:24:34.838Z,14.60
2023-07-27T04:27:01.443Z,14.70
2023-07-27T04:29:28.128Z,14.64
2023-07-27T04:31:54.771Z,14.63
2023-07-27T04:34:21.339Z,14.70
2023-07-27T04:36:49.595Z,14.71
2023-07-27T04:39:16.724Z,14.70
2023-07-27T04:41:43.328Z,14.68
2023-07-27T04:44:09.891Z,14.68
2023-07-27T04:46:36.894Z,14.71
2023-07-27T04:49:03.792Z,14.74
2023-07-27T04:51:30.436Z,14.80
2023-07-27T04:53:57.068Z,14.81
2023-07-27T04:56:23.687Z,14.75
2023-07-27T04:58:50.465Z,14.81
2023-07-27T05:01:17.127Z,14.84
2023-07-27T05:03:44.381Z,14.92
2023-07-27T05:06:10.989Z,14.98
2023-07-27T05:08:37.571Z,14.99
2023-07-27T05:11:06.262Z,14.98
2023-07-27T05:13:33.863Z,15.12
2023-07-27T05:16:01.563Z,15.08
2023-07-27T05:18:28.460Z,15.19
2023-07-27T05:20:55.715Z,15.28
2023-07-27T05:23:22.341Z,15.25
2023-07-27T05:25:49.527Z,15.38
2023-07-27T05:28:16.265Z,15.35
2023-07-27T05:30:43.391Z,15.42
2023-07-27T05:33:09.997Z,15.44
2023-07-27T05:35:36.545Z,15.33
2023-07-27T05:38:06.258Z,15.43
2023-07-27T05:40:36.603Z,15.46
2023-07-27T05:43:03.313Z,15.40
2023-07-27T05:45:29.918Z,15.43
2023-07-27T05:47:56.878Z,15.44
2023-07-27T05:50:23.685Z,15.47
2023-07-27T05:52:50.322Z,15.60
2023-07-27T05:55:16.922Z,15.56
2023-07-27T05:57:43.511Z,15.67
2023-07-27T06:00:10.610Z,15.71
2023-07-27T06:02:37.266Z,15.77
2023-07-27T06:05:04.387Z,15.80
2023-07-27T06:07:31.867Z,15.76
2023-07-27T06:09:58.451Z,15.80
2023-07-27T06:12:25.067Z,15.88
2023-07-27T06:14:52.786Z,15.94
2023-07-27T06:17:19.396Z,15.91
2023-07-27T06:19:46.003Z,15.96
2023-07-27T06:22:12.573Z,16.00
2023-07-27T06:24:39.352Z,16.07
2023-07-27T06:27:06.629Z,16.09
2023-07-27T06:29:33.251Z,16.09
2023-07-27T06:31:59.894Z,16.24
2023-07-27T06:34:27.446Z,16.36
2023-07-27T06:36:54.032Z,16.41
2023-07-27T06:39:20.687Z,16.59
2023-07-27T06:41:47.291Z,16.67
2023-07-27T06:44:13.869Z,16.81
2023-07-27T06:46:40.599Z,16.80
2023-07-27T06:49:07.538Z,16.83
2023-07-27T06:51:34.182Z,16.97
2023-07-27T06:54:00.754Z,17.04
2023-07-27T06:56:27.268Z,16.96
2023-07-27T06:58:53.839Z,16.97
2023-07-27T07:01:20.541Z,16.99
2023-07-27T07:03:47.149Z,17.04
2023-07-27T07:06:13.997Z,17.11
2023-07-27T07:08:40.889Z,17.13
2023-07-27T07:11:10.012Z,17.13
2023-07-27T07:13:36.591Z,17.11
2023-07-27T07:16:03.225Z,17.13
2023-07-27T07:18:29.766Z,17.20
2023-07-27T07:20:57.851Z,17.18
2023-07-27T07:23:24.431Z,17.17
2023-07-27T07:25:51.013Z,17.18
2023-07-27T07:28:19.672Z,17.25
2023-07-27T07:30:46.318Z,17.35
2023-07-27T07:33:13.018Z,17.35
2023-07-27T07:35:40.817Z,17.41
2023-07-27T07:38:08.069Z,17.41
2023-07-27T07:40:35.012Z,17.45
2023-07-27T07:43:01.667Z,17.46
2023-07-27T07:45:29.052Z,17.55
2023-07-27T07:47:55.822Z,17.52
2023-07-27T07:50:22.555Z,17.69
2023-07-27T07:52:51.231Z,17.75
2023-07-27T07:55:18.348Z,17.64
2023-07-27T07:57:44.993Z,17.69
2023-07-27T08:00:13.964Z,17.76
2023-07-27T08:02:42.292Z,17.69
2023-07-27T08:05:10.098Z,17.59
2023-07-27T08:07:36.973Z,17.64
2023-07-27T08:10:04.531Z,17.64
2023-07-27T08:12:31.380Z,17.64
2023-07-27T08:14:58.067Z,17.62
2023-07-27T08:17:24.724Z,17.64
2023-07-27T08:19:51.432Z,17.62
2023-07-27T08:22:18.137Z,17.65
2023-07-27T08:24:45.012Z,17.73
2023-07-27T08:27:12.241Z,17.79
2023-07-27T08:29:39.256Z,17.75
2023-07-27T08:32:06.374Z,17.65
2023-07-27T08:34:33.181Z,17.85
2023-07-27T08:36:59.767Z,17.71
2023-07-27T08:39:26.348Z,17.81
2023-07-27T08:41:53.562Z,17.97
2023-07-27T08:44:20.979Z,18.03
2023-07-27T08:46:49.253Z,18.06
2023-07-27T08:49:16.433Z,18.07
2023-07-27T08:51:44.885Z,18.14
2023-07-27T08:54:12.104Z,17.99
2023-07-27T08:56:38.741Z,18.00
2023-07-27T08:59:05.817Z,18.07
2023-07-27T09:01:33.175Z,18.10
2023-07-27T09:03:59.829Z,18.12
2023-07-27T09:06:39.182Z,18.24
2023-07-27T09:09:21.403Z,18.33
2023-07-27T09:11:48.187Z,18.43
2023-07-27T09:14:20.340Z,18.51
2023-07-27T09:16:48.792Z,18.44
2023-07-27T09:19:19.714Z,18.33
2023-07-27T09:21:49.728Z,18.29
2023-07-27T09:24:17.886Z,18.45
2023-07-27T09:26:46.716Z,18.33
2023-07-27T09:29:18.529Z,18.48
2023-07-27T09:31:50.659Z,18.67
2023-07-27T09:34:18.462Z,18.75
2023-07-27T09:36:45.498Z,18.68
2023-07-27T09:39:12.518Z,18.60
2023-07-27T09:41:39.928Z,18.75
2023-07-27T09:44:06.943Z,18.96
2023-07-27T09:46:33.904Z,18.96
2023-07-27T09:49:01.528Z,18.60
2023-07-27T09:51:30.877Z,18.68
2023-07-27T09:54:00.486Z,18.67
2023-07-27T09:56:28.896Z,18.84
2023-07-27T09:58:55.533Z,18.99
2023-07-27T10:01:22.156Z,19.22
2023-07-27T10:03:48.843Z,19.36
2023-07-27T10:06:19.296Z,19.34
2023-07-27T10:08:46.465Z,19.43
2023-07-27T10:11:13.047Z,19.19
2023-07-27T10:13:44.920Z,19.30
2023-07-27T10:16:15.225Z,19.34
2023-07-27T10:18:44.153Z,19.09
2023-07-27T10:21:23.117Z,19.03
2023-07-27T10:24:00.978Z,19.15
2023-07-27T10:26:56.962Z,19.31
2023-07-27T10:29:28.302Z,19.45
2023-07-27T10:32:07.363Z,19.66
2023-07-27T10:34:40.687Z,19.67
2023-07-27T10:37:13.100Z,19.64
2023-07-27T10:39:48.588Z,19.61
2023-07-27T10:42:27.957Z,19.67
2023-07-27T10:44:56.613Z,19.84
2023-07-27T10:47:24.279Z,20.33
2023-07-27T10:49:56.269Z,20.19
2023-07-27T10:52:25.278Z,20.18
2023-07-27T10:54:52.776Z,20.28
2023-07-27T10:57:20.965Z,20.06
2023-07-27T10:59:52.405Z,19.87
2023-07-27T11:02:25.217Z,19.87
2023-07-27T11:04:54.360Z,19.95
2023-07-27T11:07:34.941Z,19.92
2023-07-27T11:10:12.748Z,19.85
2023-07-27T11:12:47.687Z,19.88
2023-07-27T11:15:25.311Z,19.94
2023-07-27T11:17:58.089Z,19.88
2023-07-27T11:20:26.942Z,19.95
2023-07-27T11:22:56.203Z,20.05
2023-07-27T11:25:23.754Z,19.94
2023-07-27T11:27:51.466Z,19.77
2023-07-27T11:30:20.954Z,19.81
2023-07-27T11:33:04.261Z,19.75
2023-07-27T11:35:34.348Z,19.75
2023-07-27T11:38:02.240Z,19.63
2023-07-27T11:40:28.978Z,19.73
2023-07-27T11:42:56.615Z,19.58
2023-07-27T11:45:23.239Z,19.56
2023-07-27T11:47:53.604Z,19.46
2023-07-27T11:50:22.133Z,19.60
2023-07-27T11:52:59.909Z,19.68
2023-07-27T11:55:26.967Z,19.78
2023-07-27T11:57:53.821Z,19.68
2023-07-27T12:00:20.687Z,19.71
2023-07-27T12:02:52.503Z,19.58
2023-07-27T12:05:23.057Z,19.87
2023-07-27T12:15:39.212Z,19.61
2023-07-27T12:18:07.284Z,19.49
2023-07-27T12:30:34.187Z,19.68
2023-07-27T12:33:01.060Z,19.63
2023-07-27T12:35:29.717Z,19.46
2023-07-27T12:37:57.350Z,19.36
2023-07-27T12:42:56.448Z,19.43
2023-07-27T12:45:23.169Z,19.46
2023-07-27T12:47:50.325Z,19.40
2023-07-27T12:50:17.879Z,19.37
2023-07-27T12:52:44.942Z,19.40
2023-07-27T12:55:14.259Z,19.41
2023-07-27T12:57:41.420Z,19.41
2023-07-27T13:00:12.675Z,19.40
2023-07-27T13:02:39.353Z,19.43
2023-07-27T13:05:13.413Z,19.50
2023-07-27T13:07:44.344Z,19.40
2023-07-27T13:10:12.042Z,19.45
2023-07-27T13:12:39.084Z,19.39
2023-07-27T13:15:06.393Z,19.37
2023-07-27T13:17:33.221Z,19.58
2023-07-27T13:19:59.895Z,19.77
2023-07-27T13:22:26.744Z,19.79
2023-07-27T13:24:53.774Z,19.70
2023-07-27T13:27:21.270Z,19.67
2023-07-27T13:29:48.007Z,19.81
2023-07-27T13:32:14.740Z,19.77
2023-07-27T13:34:41.898Z,19.84
2023-07-27T13:37:08.583Z,19.77
2023-07-27T13:39:36.053Z,19.53
2023-07-27T13:42:02.945Z,19.39
2023-07-27T13:44:29.637Z,19.33
2023-07-27T13:46:56.255Z,19.26
2023-07-27T13:49:22.971Z,19.29
2023-07-27T13:51:49.799Z,19.30
2023-07-27T13:54:16.408Z,19.36
2023-07-27T13:56:43.010Z,19.53
2023-07-27T13:59:09.585Z,19.53
2023-07-27T14:01:36.389Z,19.41
2023-07-27T14:04:03.227Z,19.37
2023-07-27T14:06:30.362Z,19.43
2023-07-27T14:08:57.254Z,19.45
2023-07-27T14:11:25.247Z,19.34
2023-07-27T14:13:51.946Z,19.31
2023-07-27T14:16:20.659Z,19.39
2023-07-27T14:18:47.910Z,19.40
2023-07-27T14:21:14.658Z,19.34
2023-07-27T14:23:41.200Z,19.27
2023-07-27T14:26:07.898Z,19.20
2023-07-27T14:28:34.649Z,19.27
2023-07-27T14:31:11.605Z,19.20
2023-07-27T14:33:40.143Z,19.15
2023-07-27T14:36:07.281Z,19.15
2023-07-27T14:38:33.856Z,19.06
2023-07-27T14:41:00.878Z,19.03
2023-07-27T14:43:28.214Z,18.95
2023-07-27T14:45:54.840Z,18.84
2023-07-27T14:48:25.935Z,19.00
2023-07-27T14:50:52.811Z,18.88
2023-07-27T14:53:19.476Z,18.87
2023-07-27T14:55:46.632Z,18.87
2023-07-27T15:00:51.714Z,19.09
2023-07-27T15:03:22.928Z,18.98
2023-07-27T15:05:52.708Z,19.05
2023-07-27T15:08:19.630Z,18.99
2023-07-27T15:10:46.504Z,19.09
2023-07-27T15:13:13.226Z,19.18
2023-07-27T15:15:39.991Z,19.00
2023-07-27T15:18:10.196Z,19.00
2023-07-27T15:20:40.915Z,19.19
2023-07-27T15:23:08.573Z,19.26
2023-07-27T15:25:35.855Z,19.33
2023-07-27T15:28:05.964Z,19.30
2023-07-27T15:30:33.450Z,19.34
2023-07-27T15:33:01.391Z,19.24
2023-07-27T15:35:34.828Z,19.15
2023-07-27T15:38:01.722Z,18.94
2023-07-27T15:40:28.312Z,18.91
2023-07-27T15:42:54.932Z,18.91
2023-07-27T15:45:22.030Z,19.00
2023-07-27T15:47:48.771Z,18.99
2023-07-27T15:50:15.457Z,19.05
2023-07-27T15:52:43.821Z,19.06
2023-07-27T15:55:10.743Z,19.13
2023-07-27T15:57:38.095Z,19.12
2023-07-27T16:00:06.017Z,19.27
2023-07-27T16:02:33.116Z,19.47
2023-07-27T16:04:59.915Z,19.47
2023-07-27T16:07:26.596Z,19.37
2023-07-27T16:10:00.880Z,19.37
2023-07-27T16:12:28.280Z,19.26
2023-07-27T16:14:55.116Z,19.02
2023-07-27T16:17:21.921Z,18.92
2023-07-27T16:19:48.774Z,18.96
2023-07-27T16:22:15.472Z,18.95
2023-07-27T16:24:42.860Z,18.95
2023-07-27T16:27:09.577Z,18.89
2023-07-27T16:29:36.155Z,18.82
2023-07-27T16:32:03.253Z,18.94
2023-07-27T16:34:29.890Z,18.81
2023-07-27T16:36:56.499Z,18.88
2023-07-27T16:39:23.149Z,18.88
2023-07-27T16:41:49.980Z,18.79
2023-07-27T16:44:17.280Z,18.76
2023-07-27T16:46:44.004Z,18.72
2023-07-27T16:49:10.611Z,18.60
2023-07-27T16:51:37.253Z,18.64
2023-07-27T16:54:04.039Z,18.60
2023-07-27T16:56:30.622Z,18.55
2023-07-27T16:58:57.158Z,18.51
2023-07-27T17:01:25.056Z,18.61
2023-07-27T17:03:51.688Z,18.57
2023-07-27T17:06:19.092Z,18.52
2023-07-27T17:08:45.976Z,18.60
2023-07-27T17:11:12.694Z,18.55
2023-07-27T17:13:39.376Z,18.54
2023-07-27T17:16:09.074Z,18.51
2023-07-27T17:18:38.514Z,18.50
2023-07-27T17:21:06.308Z,18.50
2023-07-27T17:23:34.756Z,18.50
2023-07-27T17:26:02.525Z,18.38
2023-07-27T17:28:30.593Z,18.43
2023-07-27T17:30:58.453Z,18.51
2023-07-27T17:33:25.854Z,18.48
2023-07-27T17:35:54.862Z,18.48
2023-07-27T17:38:28.131Z,18.48
2023-07-27T17:40:58.863Z,18.44
2023-07-27T17:43:25.875Z,18.43
2023-07-27T17:45:53.816Z,18.45
2023-07-27T17:48:22.726Z,18.43
2023-07-27T17:50:58.124Z,18.40
2023-07-27T17:53:26.188Z,18.36
2023-07-27T17:55:54.262Z,18.33
2023-07-27T17:58:21.109Z,18.26
2023-07-27T18:00:48.072Z,18.30
2023-07-27T18:03:15.072Z,18.22
2023-07-27T18:05:43.700Z,18.18
2023-07-27T18:08:10.443Z,18.24
2023-07-27T18:10:38.100Z,18.20
2023-07-27T18:13:05.415Z,18.29
2023-07-27T18:15:33.602Z,18.26
2023-07-27T18:18:00.542Z,18.29
2023-07-27T18:20:28.878Z,18.26
2023-07-27T18:22:55.612Z,18.22
2023-07-27T18:25:22.970Z,18.18
2023-07-27T18:27:51.104Z,18.17
2023-07-27T18:30:18.204Z,18.12
2023-07-27T18:32:45.022Z,18.20
2023-07-27T18:35:11.788Z,18.12
2023-07-27T18:37:38.561Z,18.17
2023-07-27T18:40:05.696Z,18.14
2023-07-27T18:42:35.443Z,18.16
2023-07-27T18:45:02.729Z,18.12
2023-07-27T18:47:29.435Z,18.12
2023-07-27T18:49:56.877Z,18.13
2023-07-27T18:52:23.948Z,18.13
2023-07-27T18:54:50.557Z,18.13
2023-07-27T18:57:17.203Z,18.10
2023-07-27T18:59:43.794Z,18.06
2023-07-27T19:02:10.374Z,18.04
2023-07-27T19:04:37.098Z,18.14
2023-07-27T19:07:03.731Z,18.10
2023-07-27T19:09:30.291Z,18.13
2023-07-27T19:11:56.918Z,18.06
2023-07-27T19:14:23.459Z,18.07
2023-07-27T19:16:50.042Z,18.04
2023-07-27T19:19:16.668Z,18.04
2023-07-27T19:21:43.684Z,18.06
2023-07-27T19:24:10.344Z,18.02
2023-07-27T19:26:37.177Z,18.06
2023-07-27T19:29:07.154Z,18.12
2023-07-27T19:31:33.967Z,18.06
2023-07-27T19:34:00.704Z,18.03
2023-07-27T19:36:28.681Z,18.04
2023-07-27T19:38:57.356Z,18.04
2023-07-27T19:41:23.974Z,18.06
2023-07-27T19:43:52.180Z,18.02
2023-07-27T19:46:18.922Z,18.03
2023-07-27T19:48:45.613Z,18.00
2023-07-27T19:51:12.231Z,18.04
2023-07-27T19:53:39.061Z,18.04
2023-07-27T19:56:06.501Z,18.06
2023-07-27T19:58:34.730Z,18.09
2023-07-27T20:01:01.503Z,18.20
2023-07-27T20:03:29.058Z,18.12
2023-07-27T20:05:56.372Z,18.17
2023-07-27T20:08:40.021Z,18.20
2023-07-27T20:11:12.922Z,18.17
2023-07-27T20:13:39.726Z,18.16
2023-07-27T20:16:06.341Z,18.16
2023-07-27T20:18:32.907Z,18.12
2023-07-27T20:20:59.481Z,18.10
2023-07-27T20:23:26.102Z,18.16
2023-07-27T20:25:52.737Z,18.14
2023-07-27T20:28:19.452Z,18.10
2023-07-27T20:30:46.256Z,18.13
2023-07-27T20:33:12.914Z,18.09
2023-07-27T20:35:39.498Z,18.14
2023-07-27T20:38:06.206Z,18.14
2023-07-27T20:40:33.674Z,18.13
2023-07-27T20:43:00.259Z,18.14
2023-07-27T20:45:27.267Z,18.16
2023-07-27T20:47:56.529Z,18.13
2023-07-27T20:50:23.137Z,18.10
2023-07-27T20:52:50.746Z,18.12
2023-07-27T20:55:17.714Z,18.18
2023-07-27T20:57:48.542Z,18.18
2023-07-27T21:00:15.260Z,18.16
2023-07-27T21:02:42.396Z,18.13
2023-07-27T21:05:10.321Z,18.07
2023-07-27T21:07:37.106Z,18.13
2023-07-27T21:10:04.147Z,18.12
2023-07-27T21:12:30.793Z,18.09
2023-07-27T21:14:58.460Z,18.09
2023-07-27T21:17:25.221Z,18.14
2023-07-27T21:19:51.869Z,18.17
2023-07-27T21:22:18.494Z,18.17
2023-07-27T21:24:45.112Z,18.22
2023-07-27T21:27:11.749Z,18.17
2023-07-27T21:29:38.507Z,18.14
2023-07-27T21:32:05.688Z,18.12
2023-07-27T21:34:32.465Z,18.14
2023-07-27T21:36:59.090Z,18.12
2023-07-27T21:39:25.665Z,18.17
2023-07-27T21:41:59.962Z,18.24
2023-07-27T21:44:27.563Z,18.20
2023-07-27T21:46:54.331Z,18.24
2023-07-27T21:49:20.936Z,18.26
2023-07-27T21:51:47.502Z,18.26
2023-07-27T21:54:14.170Z,18.24
2023-07-27T21:56:40.829Z,18.23
2023-07-27T21:59:07.499Z,18.20
